Time;durP1;ratioP1;P1;durP2;ratioP2;P2;SDS_P1;SDS_P2;PMS_P1;PMS_P2;Temp;Humidity;BMP_temperature;BMP_pressure;BME280_temperature;BME280_humidity;BME280_pressure;Samples;Min_cycle;Max_cycle;Signal;HPM_P1;HPM_P2
2021/12/03 00:00:50;;;;;;;19.97;8.87;;;1.40;99.90;;;;;;4994726;28;20043;-77
2021/12/03 00:03:17;;;;;;;20.93;8.60;;;1.50;99.90;;;;;;4993932;28;20414;-74
2021/12/03 00:05:44;;;;;;;20.03;9.80;;;1.50;99.90;;;;;;4994649;28;20510;-78
2021/12/03 00:08:12;;;;;;;17.03;8.73;;;1.60;99.90;;;;;;4995161;28;20511;-74
2021/12/03 00:10:39;;;;;;;17.23;8.53;;;1.60;99.90;;;;;;4995182;28;20050;-74
2021/12/03 00:13:09;;;;;;;24.53;9.33;;;1.60;99.90;;;;;;4995453;28;20050;-74
2021/12/03 00:15:37;;;;;;;17.80;8.53;;;1.70;99.90;;;;;;4993300;28;20120;-74
2021/12/03 00:18:05;;;;;;;17.37;7.97;;;1.70;99.90;;;;;;4995030;28;20101;-75
2021/12/03 00:20:35;;;;;;;17.47;8.47;;;1.70;99.90;;;;;;4994827;28;20047;-74
2021/12/03 00:23:04;;;;;;;14.20;7.70;;;1.70;99.90;;;;;;4995146;28;20074;-75
2021/12/03 00:25:31;;;;;;;16.57;7.83;;;1.70;99.90;;;;;;4993963;28;20467;-75
2021/12/03 00:27:58;;;;;;;18.50;7.77;;;1.70;99.90;;;;;;4994266;28;20569;-77
2021/12/03 00:30:26;;;;;;;16.87;8.50;;;1.70;99.90;;;;;;4994807;28;20561;-75
2021/12/03 00:32:53;;;;;;;17.57;9.10;;;1.70;99.90;;;;;;4996148;28;20050;-75
2021/12/03 00:35:22;;;;;;;18.70;8.67;;;1.80;99.90;;;;;;4994512;28;20051;-77
2021/12/03 00:37:50;;;;;;;19.07;10.70;;;1.80;99.90;;;;;;4995671;28;20457;-75
2021/12/03 00:40:21;;;;;;;18.90;9.30;;;1.80;99.90;;;;;;4995410;28;20081;-75
2021/12/03 00:42:48;;;;;;;22.27;10.47;;;1.80;99.90;;;;;;4995688;28;20473;-75
2021/12/03 00:45:15;;;;;;;22.70;10.77;;;1.90;99.90;;;;;;4994325;28;20063;-76
2021/12/03 00:47:43;;;;;;;24.33;10.30;;;1.80;99.90;;;;;;4994670;28;20050;-75
2021/12/03 00:50:16;;;;;;;23.87;10.50;;;1.90;99.90;;;;;;4995336;28;20487;-74
2021/12/03 00:52:45;;;;;;;24.37;10.87;;;1.80;99.90;;;;;;4994807;28;20046;-77
2021/12/03 00:55:14;;;;;;;24.57;11.03;;;1.70;99.90;;;;;;4993411;28;20047;-74
2021/12/03 00:57:41;;;;;;;22.53;10.60;;;1.70;99.90;;;;;;4994525;28;20046;-74
2021/12/03 01:00:13;;;;;;;25.20;10.50;;;1.70;99.90;;;;;;4994872;28;20050;-77
2021/12/03 01:02:40;;;;;;;24.73;10.43;;;1.60;99.90;;;;;;4995919;28;20117;-76
2021/12/03 01:05:08;;;;;;;29.53;11.47;;;1.50;99.90;;;;;;4996870;28;20057;-72
2021/12/03 01:07:35;;;;;;;23.90;10.13;;;1.60;99.90;;;;;;4997584;28;20046;-72
2021/12/03 01:10:05;;;;;;;21.43;10.07;;;1.60;99.90;;;;;;4997442;28;20054;-71
2021/12/03 01:12:32;;;;;;;22.60;10.40;;;1.60;99.90;;;;;;4997401;28;20050;-74
2021/12/03 01:14:59;;;;;;;22.47;10.87;;;1.60;99.90;;;;;;4995843;28;20101;-74
2021/12/03 01:17:26;;;;;;;21.97;10.07;;;1.60;99.90;;;;;;4996220;28;20050;-73
2021/12/03 01:19:55;;;;;;;23.27;10.63;;;1.50;99.90;;;;;;4996463;28;20148;-75
2021/12/03 01:22:22;;;;;;;22.30;10.97;;;1.50;99.90;;;;;;4996232;28;20396;-74
2021/12/03 01:24:49;;;;;;;21.43;11.00;;;1.50;99.90;;;;;;4995827;28;20050;-72
2021/12/03 01:27:17;;;;;;;21.73;10.30;;;1.40;99.90;;;;;;4996903;28;20058;-75
2021/12/03 01:29:44;;;;;;;23.43;11.10;;;1.40;99.90;;;;;;4996602;28;20054;-73
2021/12/03 01:32:11;;;;;;;28.17;11.70;;;1.30;99.90;;;;;;4996738;28;20050;-72
2021/12/03 01:34:38;;;;;;;28.37;11.73;;;1.30;99.90;;;;;;4996660;28;20101;-74
2021/12/03 01:37:06;;;;;;;27.87;11.70;;;1.20;99.90;;;;;;4996562;28;20412;-72
2021/12/03 01:39:34;;;;;;;30.70;12.60;;;1.30;99.90;;;;;;4996889;28;20081;-72
2021/12/03 01:42:01;;;;;;;24.80;11.73;;;1.20;99.90;;;;;;4997399;28;20347;-71
2021/12/03 01:44:29;;;;;;;26.63;12.73;;;1.20;99.90;;;;;;4996172;28;20077;-72
2021/12/03 01:46:56;;;;;;;26.33;12.17;;;1.20;99.90;;;;;;4995972;28;20517;-72
2021/12/03 01:49:24;;;;;;;22.97;11.03;;;1.20;99.90;;;;;;4995999;28;20046;-74
2021/12/03 01:51:51;;;;;;;24.67;10.93;;;1.20;99.90;;;;;;4994476;28;20054;-72
2021/12/03 01:54:18;;;;;;;22.37;10.73;;;1.20;99.90;;;;;;4996188;28;20050;-73
2021/12/03 01:56:45;;;;;;;22.67;9.63;;;1.20;99.90;;;;;;4995764;28;20057;-72
2021/12/03 01:59:12;;;;;;;24.20;10.97;;;1.20;99.90;;;;;;4995858;28;20054;-74
2021/12/03 02:01:41;;;;;;;26.53;10.80;;;1.20;99.90;;;;;;4996364;28;20050;-72
2021/12/03 02:04:08;;;;;;;20.20;9.60;;;1.20;99.90;;;;;;4996370;28;20050;-72
2021/12/03 02:06:36;;;;;;;20.73;9.93;;;1.30;99.90;;;;;;4996100;28;20054;-72
2021/12/03 02:09:05;;;;;;;20.40;9.40;;;1.30;99.90;;;;;;4995635;28;20054;-72
2021/12/03 02:11:32;;;;;;;15.43;7.70;;;1.40;99.90;;;;;;4996013;28;20046;-72
2021/12/03 02:13:59;;;;;;;16.67;8.53;;;1.40;99.90;;;;;;4995477;28;20051;-71
2021/12/03 02:16:27;;;;;;;20.23;8.80;;;1.40;99.90;;;;;;4994304;28;20047;-69
2021/12/03 02:18:55;;;;;;;20.13;9.10;;;1.40;99.90;;;;;;4995993;28;20046;-69
2021/12/03 02:21:24;;;;;;;17.47;8.27;;;1.40;99.90;;;;;;4996694;28;20070;-72
2021/12/03 02:23:52;;;;;;;20.70;9.77;;;1.40;99.90;;;;;;4996384;28;20105;-69
2021/12/03 02:26:19;;;;;;;19.80;8.77;;;1.40;99.90;;;;;;4995479;28;20054;-69
2021/12/03 02:28:49;;;;;;;18.87;9.10;;;1.40;99.90;;;;;;4995966;28;20081;-69
2021/12/03 02:31:19;;;;;;;18.57;8.80;;;1.30;99.90;;;;;;4995975;28;20050;-70
2021/12/03 02:33:46;;;;;;;20.57;9.17;;;1.30;99.90;;;;;;4995825;28;20058;-69
2021/12/03 02:36:14;;;;;;;19.20;8.87;;;1.20;99.90;;;;;;4995064;28;20054;-68
2021/12/03 02:38:42;;;;;;;18.17;8.37;;;1.10;99.90;;;;;;4995928;28;20493;-70
2021/12/03 02:41:09;;;;;;;19.70;9.57;;;1.10;99.90;;;;;;4995320;28;20109;-70
2021/12/03 02:43:37;;;;;;;19.57;9.50;;;1.00;99.90;;;;;;4994630;28;20054;-69
2021/12/03 02:46:04;;;;;;;22.33;9.73;;;1.00;99.90;;;;;;4995084;28;20109;-69
2021/12/03 02:48:34;;;;;;;21.33;9.63;;;1.00;99.90;;;;;;4995433;28;20088;-69
2021/12/03 02:51:02;;;;;;;22.90;9.53;;;1.00;99.90;;;;;;4995703;28;20372;-69
2021/12/03 02:53:29;;;;;;;21.93;9.60;;;1.10;99.90;;;;;;4994575;28;20502;-69
2021/12/03 02:55:57;;;;;;;22.00;9.57;;;1.00;99.90;;;;;;4994661;28;20084;-71
2021/12/03 02:58:24;;;;;;;19.90;9.60;;;1.10;99.90;;;;;;4995131;28;20108;-69
2021/12/03 03:00:52;;;;;;;23.57;9.57;;;1.10;99.90;;;;;;4995741;28;20050;-69
2021/12/03 03:03:20;;;;;;;21.50;9.53;;;1.10;99.90;;;;;;4995881;28;20046;-69
2021/12/03 03:05:52;;;;;;;21.33;9.53;;;1.10;99.90;;;;;;4994332;28;20055;-69
2021/12/03 03:08:20;;;;;;;20.80;9.83;;;1.20;99.90;;;;;;4995138;28;20050;-72
2021/12/03 03:13:27;;;;;;;19.93;9.00;;;1.30;99.90;;;;;;5049529;28;20056;-66
2021/12/03 03:15:54;;;;;;;17.87;8.60;;;1.30;99.90;;;;;;5049981;28;20048;-66
2021/12/03 03:18:24;;;;;;;19.27;9.00;;;1.20;99.90;;;;;;5050561;28;20405;-66
2021/12/03 03:20:52;;;;;;;22.10;9.27;;;1.20;99.90;;;;;;5050485;28;20090;-66
2021/12/03 03:23:21;;;;;;;19.23;8.47;;;1.30;99.90;;;;;;5068074;28;20052;-66
2021/12/03 03:25:49;;;;;;;18.70;9.53;;;1.20;99.90;;;;;;5062603;28;20049;-66
2021/12/03 03:28:17;;;;;;;20.53;9.50;;;1.20;99.90;;;;;;5050547;28;20056;-66
2021/12/03 03:30:48;;;;;;;20.67;9.37;;;1.10;99.90;;;;;;5050754;28;20049;-67
2021/12/03 03:33:15;;;;;;;19.63;9.07;;;1.10;99.90;;;;;;5050126;28;20224;-67
2021/12/03 03:35:43;;;;;;;21.90;8.53;;;1.10;99.90;;;;;;5049528;28;20049;-66
2021/12/03 03:38:11;;;;;;;21.27;8.97;;;1.00;99.90;;;;;;5049775;28;20532;-66
2021/12/03 03:40:39;;;;;;;18.23;8.93;;;1.00;99.90;;;;;;5049998;28;20052;-66
2021/12/03 03:43:07;;;;;;;18.03;7.67;;;0.90;99.90;;;;;;5049794;28;20085;-67
2021/12/03 03:45:36;;;;;;;17.63;8.67;;;0.90;99.90;;;;;;5049233;28;20078;-66
2021/12/03 03:48:04;;;;;;;16.80;7.67;;;0.90;99.90;;;;;;5049496;28;20045;-66
2021/12/03 03:50:32;;;;;;;18.17;7.43;;;0.80;99.90;;;;;;5049705;28;20057;-67
2021/12/03 03:53:00;;;;;;;20.47;7.40;;;0.80;99.90;;;;;;5050205;28;20045;-66
2021/12/03 03:55:28;;;;;;;16.60;6.67;;;0.80;99.90;;;;;;5049233;28;20126;-67
2021/12/03 03:57:58;;;;;;;12.47;5.60;;;0.80;99.90;;;;;;5049954;28;20053;-67
2021/12/03 04:00:29;;;;;;;12.33;5.63;;;0.70;99.90;;;;;;5049918;28;20460;-67
2021/12/03 04:02:56;;;;;;;11.20;5.50;;;0.80;99.90;;;;;;5049952;28;20053;-66
2021/12/03 04:05:25;;;;;;;13.43;5.63;;;0.70;99.90;;;;;;5049302;28;20087;-67
2021/12/03 04:07:52;;;;;;;14.40;6.00;;;0.70;99.90;;;;;;5049705;28;20049;-66
2021/12/03 04:10:19;;;;;;;14.23;6.33;;;0.60;99.90;;;;;;5050335;28;20122;-66
2021/12/03 04:12:46;;;;;;;14.27;5.57;;;0.60;99.90;;;;;;5049533;28;20107;-66
2021/12/03 04:15:14;;;;;;;14.23;6.23;;;0.40;99.90;;;;;;5049205;28;20575;-66
2021/12/03 04:17:41;;;;;;;14.53;6.07;;;0.40;99.90;;;;;;5049644;28;20211;-66
2021/12/03 04:20:11;;;;;;;13.37;5.40;;;0.40;99.90;;;;;;5049215;28;20049;-66
2021/12/03 04:22:39;;;;;;;12.97;5.70;;;0.30;99.90;;;;;;5049007;28;20061;-66
2021/12/03 04:25:09;;;;;;;16.63;6.20;;;0.20;99.90;;;;;;5048731;28;20049;-66
2021/12/03 04:27:36;;;;;;;14.33;5.93;;;0.20;99.90;;;;;;5049251;28;20110;-66
2021/12/03 04:30:06;;;;;;;13.47;5.63;;;0.10;99.90;;;;;;5049219;28;20085;-66
2021/12/03 04:32:33;;;;;;;12.20;5.40;;;0.10;99.90;;;;;;5049236;28;20558;-66
2021/12/03 04:35:00;;;;;;;14.03;5.63;;;0.10;99.90;;;;;;5048294;28;20564;-66
2021/12/03 04:37:27;;;;;;;14.07;6.10;;;0.00;99.90;;;;;;5050032;28;20089;-66
2021/12/03 04:39:56;;;;;;;15.93;6.97;;;-0.10;99.90;;;;;;5053499;28;20053;-66
2021/12/03 04:42:25;;;;;;;14.10;6.57;;;-0.10;99.90;;;;;;5053131;28;20045;-66
2021/12/03 04:44:52;;;;;;;15.53;6.63;;;-0.20;99.90;;;;;;5053003;28;20048;-66
2021/12/03 04:47:19;;;;;;;15.17;6.20;;;-0.20;99.90;;;;;;5053075;28;20052;-66
2021/12/03 04:49:46;;;;;;;14.07;5.97;;;-0.10;99.90;;;;;;5052964;28;20497;-66
2021/12/03 04:52:13;;;;;;;15.63;6.23;;;-0.10;99.90;;;;;;5053160;28;20103;-66
2021/12/03 04:54:42;;;;;;;15.60;6.17;;;-0.10;99.90;;;;;;5053139;28;20045;-65
2021/12/03 04:57:11;;;;;;;12.67;5.87;;;-0.20;99.90;;;;;;5052797;28;20489;-66
2021/12/03 04:59:38;;;;;;;15.50;6.63;;;-0.20;99.90;;;;;;5053538;28;20052;-66
2021/12/03 05:02:05;;;;;;;13.67;5.40;;;-0.20;99.90;;;;;;5052690;28;20045;-66
2021/12/03 05:04:37;;;;;;;15.20;6.60;;;-0.20;99.90;;;;;;5053026;28;20106;-66
2021/12/03 05:07:16;;;;;;;17.80;6.37;;;-0.20;99.90;;;;;;5052952;28;20127;-66
2021/12/03 05:09:43;;;;;;;17.90;6.77;;;-0.20;99.90;;;;;;5053522;28;20055;-66
2021/12/03 05:12:12;;;;;;;18.80;6.73;;;-0.10;99.90;;;;;;5053547;28;20045;-66
2021/12/03 05:14:39;;;;;;;15.63;6.70;;;-0.10;99.90;;;;;;5052957;28;20095;-66
2021/12/03 05:17:06;;;;;;;16.00;5.67;;;-0.20;99.90;;;;;;5052992;28;20094;-66
2021/12/03 05:19:33;;;;;;;18.17;6.70;;;-0.20;99.90;;;;;;5053061;28;20075;-66
2021/12/03 05:22:00;;;;;;;15.47;6.67;;;-0.20;99.90;;;;;;5055987;28;20400;-66
2021/12/03 05:24:27;;;;;;;18.97;6.40;;;-0.20;99.90;;;;;;5057441;28;20106;-66
2021/12/03 05:26:54;;;;;;;20.37;7.37;;;-0.30;99.90;;;;;;5057564;28;20084;-66
2021/12/03 05:29:23;;;;;;;16.23;6.77;;;-0.20;99.90;;;;;;5059017;28;20060;-66
2021/12/03 05:31:51;;;;;;;18.43;7.13;;;-0.20;99.90;;;;;;5058722;28;20063;-66
2021/12/03 05:34:18;;;;;;;17.67;6.97;;;-0.20;99.90;;;;;;5058149;28;20167;-66
2021/12/03 05:36:46;;;;;;;17.37;6.93;;;-0.20;99.90;;;;;;5058026;28;20456;-66
2021/12/03 05:39:14;;;;;;;20.70;8.53;;;-0.20;99.90;;;;;;5058967;28;20045;-66
2021/12/03 05:41:41;;;;;;;21.73;7.87;;;-0.20;99.90;;;;;;5058620;28;20053;-66
2021/12/03 05:44:08;;;;;;;18.83;6.50;;;-0.20;99.90;;;;;;5072801;28;20108;-67
2021/12/03 05:46:37;;;;;;;17.97;7.53;;;-0.30;99.90;;;;;;5065570;28;20106;-66
2021/12/03 05:49:04;;;;;;;18.37;8.63;;;-0.40;99.90;;;;;;5052345;28;20045;-66
2021/12/03 05:51:31;;;;;;;19.67;8.30;;;-0.40;99.90;;;;;;5052659;28;20084;-66
2021/12/03 05:53:58;;;;;;;23.57;7.80;;;-0.30;99.90;;;;;;5051873;28;20053;-66
2021/12/03 05:56:25;;;;;;;24.77;8.87;;;-0.40;99.90;;;;;;5051520;28;20056;-66
2021/12/03 05:58:52;;;;;;;22.07;8.27;;;-0.30;99.90;;;;;;5051903;28;20049;-66
2021/12/03 06:01:19;;;;;;;23.83;8.87;;;-0.40;99.90;;;;;;5052158;28;20095;-66
2021/12/03 06:03:47;;;;;;;25.03;8.47;;;-0.40;99.90;;;;;;5057922;28;20049;-66
2021/12/03 06:06:15;;;;;;;25.87;9.67;;;-0.40;99.90;;;;;;5054155;28;20044;-67
2021/12/03 06:08:42;;;;;;;25.57;9.70;;;-0.40;99.90;;;;;;5052976;28;20075;-66
2021/12/03 06:11:09;;;;;;;24.97;11.40;;;-0.50;99.90;;;;;;5051622;28;20130;-67
2021/12/03 06:13:39;;;;;;;28.60;11.00;;;-0.40;99.90;;;;;;5051766;28;20084;-66
2021/12/03 06:16:07;;;;;;;20.37;8.37;;;-0.50;99.90;;;;;;5051388;28;20057;-67
2021/12/03 06:18:34;;;;;;;23.90;9.00;;;-0.50;99.90;;;;;;5051822;28;20049;-67
2021/12/03 06:21:04;;;;;;;21.70;9.77;;;-0.50;99.90;;;;;;5051527;28;20103;-66
2021/12/03 06:23:31;;;;;;;18.50;7.77;;;-0.50;99.90;;;;;;5051683;28;20049;-67
2021/12/03 06:25:59;;;;;;;21.77;9.37;;;-0.50;99.90;;;;;;5051300;28;20045;-67
2021/12/03 06:28:26;;;;;;;21.93;9.60;;;-0.50;99.90;;;;;;5051589;28;20083;-67
2021/12/03 06:30:53;;;;;;;23.17;10.43;;;-0.40;99.90;;;;;;5068788;28;20057;-67
2021/12/03 06:33:20;;;;;;;23.33;9.63;;;-0.50;99.90;;;;;;5060328;28;20551;-67
2021/12/03 06:35:48;;;;;;;23.93;9.73;;;-0.50;99.90;;;;;;5050391;28;20052;-67
2021/12/03 06:38:17;;;;;;;24.50;10.17;;;-0.50;99.90;;;;;;5050915;28;20045;-67
2021/12/03 06:40:44;;;;;;;29.23;11.67;;;-0.40;99.90;;;;;;5050844;28;20049;-67
2021/12/03 06:43:12;;;;;;;40.60;15.70;;;-0.40;99.90;;;;;;5051095;28;20048;-67
2021/12/03 06:45:39;;;;;;;37.13;15.53;;;-0.50;99.90;;;;;;5049970;28;20049;-67
2021/12/03 06:48:06;;;;;;;34.20;14.70;;;-0.40;99.90;;;;;;5050552;28;20471;-67
2021/12/03 06:50:34;;;;;;;29.77;11.60;;;-0.40;99.90;;;;;;5051262;28;20056;-67
2021/12/03 06:53:03;;;;;;;22.20;10.50;;;-0.40;99.90;;;;;;5050418;28;20516;-67
2021/12/03 06:55:38;;;;;;;24.93;11.20;;;-0.40;99.90;;;;;;5051559;28;20103;-67
2021/12/03 06:58:05;;;;;;;21.63;9.60;;;-0.40;99.90;;;;;;5052869;28;20049;-67
2021/12/03 07:00:32;;;;;;;26.07;10.10;;;-0.40;99.90;;;;;;5052617;28;20049;-67
2021/12/03 07:02:59;;;;;;;23.23;10.17;;;-0.40;99.90;;;;;;5051950;28;20084;-68
2021/12/03 07:05:26;;;;;;;27.77;10.37;;;-0.30;99.90;;;;;;5051794;28;20045;-67
2021/12/03 07:07:53;;;;;;;22.37;9.80;;;-0.30;99.90;;;;;;5051335;28;20106;-67
2021/12/03 07:10:20;;;;;;;22.83;10.97;;;-0.30;99.90;;;;;;5051270;28;20060;-67
2021/12/03 07:12:49;;;;;;;25.23;11.07;;;-0.40;99.90;;;;;;5050857;28;20048;-67
2021/12/03 07:15:16;;;;;;;23.57;10.70;;;-0.40;99.90;;;;;;5049856;28;20060;-67
2021/12/03 07:17:45;;;;;;;24.57;10.70;;;-0.40;99.90;;;;;;5050629;28;20049;-67
2021/12/03 07:20:13;;;;;;;24.43;10.67;;;-0.40;99.90;;;;;;5050610;28;20060;-67
2021/12/03 07:22:40;;;;;;;23.47;10.33;;;-0.40;99.90;;;;;;5050860;28;20088;-67
2021/12/03 07:25:08;;;;;;;20.03;10.17;;;-0.30;99.90;;;;;;5049508;28;20417;-67
2021/12/03 07:27:35;;;;;;;26.30;10.40;;;-0.20;99.90;;;;;;5049750;28;20447;-67
2021/12/03 07:30:05;;;;;;;24.47;9.93;;;-0.20;99.90;;;;;;5049757;28;20048;-67
2021/12/03 07:32:32;;;;;;;24.50;10.63;;;-0.10;99.90;;;;;;5049799;28;20413;-67
2021/12/03 07:34:59;;;;;;;19.23;9.17;;;-0.10;99.90;;;;;;5048982;28;20114;-67
2021/12/03 07:37:27;;;;;;;17.50;8.37;;;-0.10;99.90;;;;;;5049578;28;20099;-67
2021/12/03 07:39:54;;;;;;;21.70;9.00;;;0.10;99.90;;;;;;5049970;28;20107;-67
2021/12/03 07:42:21;;;;;;;21.83;8.47;;;0.10;99.90;;;;;;5049578;28;20456;-67
2021/12/03 07:44:48;;;;;;;20.83;9.23;;;0.10;99.90;;;;;;5048920;28;20053;-67
2021/12/03 07:47:16;;;;;;;18.27;8.17;;;0.20;99.90;;;;;;5049552;28;20099;-67
2021/12/03 07:49:48;;;;;;;22.47;9.00;;;0.20;99.90;;;;;;5049524;28;20053;-67
2021/12/03 07:52:16;;;;;;;15.00;7.50;;;0.30;99.90;;;;;;5049461;28;20501;-67
2021/12/03 07:54:43;;;;;;;14.97;7.20;;;0.30;99.90;;;;;;5049511;28;20057;-67
2021/12/03 07:57:11;;;;;;;17.83;7.90;;;0.30;99.90;;;;;;5049358;28;20048;-67
2021/12/03 07:59:38;;;;;;;18.03;7.63;;;0.30;99.90;;;;;;5050040;28;20044;-67
2021/12/03 08:02:05;;;;;;;21.20;8.77;;;0.40;99.90;;;;;;5049752;28;20053;-67
2021/12/03 08:04:35;;;;;;;16.73;7.97;;;0.40;99.90;;;;;;5049670;28;20460;-68
2021/12/03 08:07:02;;;;;;;16.20;8.00;;;0.50;99.90;;;;;;5049365;28;20080;-65
2021/12/03 08:09:29;;;;;;;19.93;9.67;;;0.50;99.90;;;;;;5049882;28;20049;-65
2021/12/03 08:11:56;;;;;;;20.63;9.03;;;0.50;99.90;;;;;;5049003;28;20475;-65
2021/12/03 08:14:25;;;;;;;20.33;9.50;;;0.60;99.90;;;;;;5049478;28;20053;-65
2021/12/03 08:16:52;;;;;;;26.27;10.37;;;0.70;99.90;;;;;;5049235;28;20500;-67
2021/12/03 08:19:19;;;;;;;19.70;9.70;;;0.70;99.90;;;;;;5049573;28;20124;-67
2021/12/03 08:21:47;;;;;;;18.13;9.07;;;0.80;99.90;;;;;;5049431;28;20417;-68
2021/12/03 08:24:14;;;;;;;20.10;9.30;;;0.80;99.90;;;;;;5049230;28;20060;-65
2021/12/03 08:26:41;;;;;;;17.87;8.40;;;0.80;99.90;;;;;;5048899;28;20053;-65
2021/12/03 08:29:08;;;;;;;17.40;8.27;;;0.80;99.90;;;;;;5049238;28;20088;-65
2021/12/03 08:31:36;;;;;;;18.60;9.40;;;0.80;99.90;;;;;;5049868;28;20404;-65
2021/12/03 08:34:02;;;;;;;17.10;8.40;;;0.80;99.90;;;;;;5049264;28;20049;-65
2021/12/03 08:36:30;;;;;;;17.03;8.83;;;0.80;99.90;;;;;;5048717;28;20045;-67
2021/12/03 08:38:58;;;;;;;17.13;8.07;;;0.80;99.90;;;;;;5049434;28;20524;-65
2021/12/03 08:41:26;;;;;;;17.07;8.13;;;0.90;99.90;;;;;;5049018;28;20049;-68
2021/12/03 08:43:53;;;;;;;21.37;9.13;;;0.80;99.90;;;;;;5048989;28;20052;-68
2021/12/03 08:46:23;;;;;;;18.33;8.80;;;0.90;99.90;;;;;;5048631;28;20468;-68
2021/12/03 08:48:50;;;;;;;18.97;9.17;;;1.00;99.90;;;;;;5049485;28;20052;-67
2021/12/03 08:51:33;;;;;;;18.43;9.10;;;1.10;99.90;;;;;;5064127;28;20044;-68
2021/12/03 08:56:46;;;;;;;19.73;8.93;;;1.30;99.90;;;;;;5048730;28;20056;-68
2021/12/03 08:59:15;;;;;;;19.53;9.20;;;1.30;99.90;;;;;;5049812;28;20059;-68
2021/12/03 09:01:44;;;;;;;15.07;7.63;;;1.30;99.90;;;;;;5049524;28;20084;-65
2021/12/03 09:04:12;;;;;;;19.23;10.10;;;1.30;99.90;;;;;;5049443;28;20055;-65
2021/12/03 09:06:39;;;;;;;17.90;9.43;;;1.60;99.90;;;;;;5048458;28;20060;-65
2021/12/03 09:09:08;;;;;;;16.87;8.17;;;1.70;99.90;;;;;;5048990;28;20045;-68
2021/12/03 09:11:50;;;;;;;13.17;7.50;;;1.80;99.90;;;;;;5121538;22;20063;-67
2021/12/03 09:14:22;;;;;;;18.63;8.03;;;1.90;99.90;;;;;;5032871;28;20107;-70
2021/12/03 09:16:55;;;;;;;17.13;8.57;;;1.80;99.90;;;;;;5032057;28;20057;-69
2021/12/03 09:19:26;;;;;;;15.60;7.40;;;1.80;99.90;;;;;;5031739;28;20489;-69
2021/12/03 09:21:53;;;;;;;14.63;7.30;;;1.70;99.90;;;;;;5031707;28;20520;-70
2021/12/03 09:24:29;;;;;;;15.70;7.40;;;1.80;99.90;;;;;;5032721;28;20046;-70
2021/12/03 09:26:56;;;;;;;14.80;6.80;;;1.80;99.90;;;;;;5033467;28;20057;-70
2021/12/03 09:29:28;;;;;;;15.70;7.30;;;1.70;99.90;;;;;;5032603;28;20081;-71
2021/12/03 09:31:56;;;;;;;13.50;7.00;;;1.70;99.90;;;;;;5032347;28;20053;-69
2021/12/03 09:34:24;;;;;;;13.07;6.63;;;1.60;99.90;;;;;;5032091;28;20053;-70
2021/12/03 09:36:52;;;;;;;16.30;7.00;;;1.50;99.90;;;;;;5032139;28;20088;-71
2021/12/03 09:39:22;;;;;;;12.83;6.40;;;1.60;99.90;;;;;;5033621;28;20041;-72
2021/12/03 09:41:51;;;;;;;12.50;6.97;;;1.60;99.90;;;;;;5032697;28;20512;-70
2021/12/03 09:44:18;;;;;;;13.20;7.13;;;1.70;99.90;;;;;;5031601;28;20049;-69
2021/12/03 09:46:45;;;;;;;14.17;7.10;;;1.70;99.90;;;;;;5031027;28;20045;-71
2021/12/03 09:49:32;;;;;;;14.63;8.03;;;1.70;99.90;;;;;;5031348;28;20523;-70
2021/12/03 09:52:13;;;;;;;15.07;7.50;;;2.50;99.90;;;;;;5033018;28;20061;-71
2021/12/03 09:54:48;;;;;;;16.53;6.90;;;2.40;99.90;;;;;;5033512;28;20456;-68
2021/12/03 09:57:29;;;;;;;15.83;8.17;;;2.10;99.90;;;;;;5032357;28;20516;-72
2021/12/03 10:00:08;;;;;;;14.77;7.23;;;2.00;99.90;;;;;;5031442;28;20053;-71
2021/12/03 10:14:35;;;;;;;15.53;8.37;;;1.70;99.90;;;;;;5030896;28;20045;-71
2021/12/03 10:20:04;;;;;;;21.33;8.70;;;2.20;99.90;;;;;;5031086;28;20052;-71
2021/12/03 10:23:06;;;;;;;18.13;9.00;;;2.10;99.90;;;;;;5031732;28;20053;-70
2021/12/03 10:25:52;;;;;;;14.70;8.60;;;2.10;99.90;;;;;;5030127;28;20140;-70
2021/12/03 10:28:47;;;;;;;18.47;8.53;;;2.00;99.90;;;;;;5031382;28;20057;-70
2021/12/03 10:39:53;;;;;;;15.13;7.17;;;2.20;99.90;;;;;;5028510;28;20037;-71
2021/12/03 10:42:31;;;;;;;18.63;8.40;;;2.50;99.90;;;;;;5030761;28;20092;-71
2021/12/03 10:45:14;;;;;;;13.70;7.20;;;2.80;99.90;;;;;;5030167;28;20140;-69
2021/12/03 10:47:52;;;;;;;16.57;8.00;;;2.40;99.90;;;;;;5030817;28;20474;-71
2021/12/03 10:50:40;;;;;;;17.43;8.60;;;2.30;99.90;;;;;;5031641;28;20050;-71
2021/12/03 10:53:24;;;;;;;14.80;7.07;;;2.50;99.90;;;;;;5030827;28;20413;-70
2021/12/03 11:13:14;;;;;;;18.00;8.57;;;1.60;99.90;;;;;;5022344;28;20436;-70
2021/12/03 13:20:23;;;;;;;8.67;3.07;;;1.30;99.90;;;;;;5011681;28;20133;-70
2021/12/03 14:42:09;;;;;;;10.90;4.90;;;1.40;99.90;;;;;;4984742;28;20429;-70
2021/12/03 14:44:56;;;;;;;13.00;5.20;;;1.50;99.90;;;;;;5010004;28;20089;-70
2021/12/03 14:47:43;;;;;;;11.40;4.30;;;1.40;99.90;;;;;;5010346;28;20096;-71
2021/12/03 14:50:33;;;;;;;13.53;4.73;;;1.40;99.90;;;;;;5009890;28;20046;-71
2021/12/03 14:53:33;;;;;;;13.73;4.47;;;1.40;99.90;;;;;;5010129;28;20399;-69
2021/12/03 14:56:09;;;;;;;9.57;4.13;;;1.40;99.90;;;;;;5009417;28;20088;-70
2021/12/03 14:58:46;;;;;;;11.33;4.03;;;1.40;99.90;;;;;;5010578;28;20053;-71
2021/12/03 15:01:20;;;;;;;11.93;4.07;;;1.40;99.90;;;;;;5010390;28;20387;-70
2021/12/03 15:06:35;;;;;;;9.40;4.20;;;1.50;99.90;;;;;;5008554;28;20190;-71
2021/12/03 15:09:09;;;;;;;9.90;4.17;;;1.50;99.90;;;;;;5012197;28;20054;-71
2021/12/03 15:20:29;;;;;;;10.03;4.27;;;1.50;99.90;;;;;;5013762;28;20057;-70
2021/12/03 15:23:13;;;;;;;10.33;4.13;;;1.50;99.90;;;;;;5012870;28;20092;-70
2021/12/03 15:25:55;;;;;;;10.87;3.53;;;1.60;99.90;;;;;;5010529;28;20076;-69
2021/12/03 15:31:16;;;;;;;12.27;4.80;;;1.60;99.90;;;;;;4997505;28;20535;-69
2021/12/03 15:33:52;;;;;;;14.57;4.53;;;1.60;99.90;;;;;;5011348;28;20050;-71
2021/12/03 15:36:25;;;;;;;15.13;5.30;;;1.60;99.90;;;;;;5009368;28;20506;-69
2021/12/03 15:39:13;;;;;;;12.33;5.13;;;1.60;99.90;;;;;;5012316;28;20089;-70
2021/12/03 15:56:09;;;;;;;9.43;3.90;;;1.60;99.90;;;;;;5008726;28;20379;-71
2021/12/03 16:04:11;;;;;;;9.83;4.50;;;1.60;99.90;;;;;;5009156;28;20439;-70
2021/12/03 16:07:03;;;;;;;10.10;4.50;;;1.60;99.90;;;;;;5009160;28;20498;-70
2021/12/03 16:09:48;;;;;;;11.20;3.97;;;1.60;99.90;;;;;;5009467;28;20053;-69
2021/12/03 16:12:24;;;;;;;17.37;5.20;;;1.60;99.90;;;;;;5009774;28;20144;-70
2021/12/03 16:15:09;;;;;;;12.90;4.30;;;1.60;99.90;;;;;;5008970;28;20145;-71
2021/12/03 16:17:49;;;;;;;12.70;5.17;;;1.60;99.90;;;;;;5009762;28;20570;-70
2021/12/03 16:23:35;;;;;;;14.30;4.20;;;1.60;99.90;;;;;;4948834;28;20504;-71
2021/12/03 16:51:23;;;;;;;11.87;5.13;;;1.30;99.90;;;;;;5013241;28;20080;-70
2021/12/03 16:53:54;;;;;;;14.83;5.60;;;1.30;99.90;;;;;;5012857;28;20413;-70
2021/12/03 16:56:24;;;;;;;16.10;5.60;;;1.30;99.90;;;;;;5012360;28;20361;-71
2021/12/03 16:58:51;;;;;;;12.20;4.60;;;1.20;99.90;;;;;;5013224;28;20482;-70
2021/12/03 17:01:24;;;;;;;11.07;5.53;;;1.20;99.90;;;;;;5012716;28;20509;-69
2021/12/03 17:03:55;;;;;;;11.50;5.77;;;1.20;99.90;;;;;;5012915;28;20053;-71
2021/12/03 17:09:20;;;;;;;19.37;5.60;;;1.20;99.90;;;;;;4982135;28;20477;-70
2021/12/03 17:12:03;;;;;;;11.63;5.17;;;1.20;99.90;;;;;;5012667;28;20053;-71
2021/12/03 17:48:24;;;;;;;9.73;4.53;;;1.20;99.90;;;;;;5009158;28;20054;-70
2021/12/03 17:56:33;;;;;;;10.35;4.78;;;1.20;99.90;;;;;;5006159;28;20133;-71
2021/12/03 17:59:08;;;;;;;10.53;5.00;;;1.20;99.90;;;;;;5011760;28;20144;-71
2021/12/03 18:01:44;;;;;;;11.37;5.07;;;1.20;99.90;;;;;;5011659;28;20053;-70
2021/12/03 18:04:20;;;;;;;14.10;4.93;;;1.20;99.90;;;;;;5012375;28;20058;-69
2021/12/03 18:07:05;;;;;;;10.30;4.32;;;1.10;99.90;;;;;;5011458;28;20046;-70
2021/12/03 18:51:18;;;;;;;12.53;5.27;;;1.10;99.90;;;;;;5011185;28;20038;-71
2021/12/03 18:54:07;;;;;;;11.33;5.17;;;1.10;99.90;;;;;;5010949;28;20050;-69
2021/12/03 18:56:41;;;;;;;16.77;6.37;;;1.10;99.90;;;;;;5010465;28;20491;-69
2021/12/03 18:59:09;;;;;;;15.97;6.00;;;1.00;99.90;;;;;;5010651;28;20057;-70
2021/12/03 19:01:38;;;;;;;11.90;5.10;;;1.00;99.90;;;;;;5010356;28;20383;-70
2021/12/03 19:04:15;;;;;;;13.47;5.30;;;1.10;99.90;;;;;;5010480;28;20107;-70
2021/12/03 19:06:45;;;;;;;15.13;5.47;;;1.10;99.90;;;;;;5010152;28;20141;-70
2021/12/03 19:09:15;;;;;;;13.40;4.97;;;1.10;99.90;;;;;;5010523;28;20120;-70
2021/12/03 19:11:49;;;;;;;17.50;6.07;;;1.20;99.90;;;;;;5010034;28;20084;-70
2021/12/03 19:14:16;;;;;;;11.90;5.43;;;1.10;99.90;;;;;;5010499;28;20058;-69
2021/12/03 19:16:45;;;;;;;13.27;6.23;;;1.10;99.90;;;;;;5010121;28;20168;-69
2021/12/03 19:19:14;;;;;;;14.20;5.90;;;1.10;99.90;;;;;;5010287;28;20045;-70
2021/12/03 19:21:43;;;;;;;14.00;5.97;;;1.10;99.90;;;;;;5010279;28;20054;-69
2021/12/03 19:24:12;;;;;;;13.40;5.37;;;1.10;99.90;;;;;;5010711;28;20077;-70
2021/12/03 19:26:43;;;;;;;13.00;4.80;;;1.00;99.90;;;;;;5009576;28;20506;-70
2021/12/03 19:29:11;;;;;;;15.20;5.50;;;1.00;99.90;;;;;;5011412;28;20144;-68
2021/12/03 19:31:39;;;;;;;13.47;6.10;;;1.10;99.90;;;;;;5010289;28;20073;-68
2021/12/03 19:34:07;;;;;;;15.13;5.70;;;1.00;99.90;;;;;;5010501;28;20049;-70